Time;durP1;ratioP1;P1;durP2;ratioP2;P2;SDS_P1;SDS_P2;PMS_P1;PMS_P2;Temp;Humidity;BMP_temperature;BMP_pressure;BME280_temperature;BME280_humidity;BME280_pressure;Samples;Min_cycle;Max_cycle;Signal;HPM_P1;HPM_P2
2020/12/14 00:00:16;;;;;;;7.70;3.40;;;;;;;5.11;86.15;97492.03;1762438;81;21154;-66
2020/12/14 00:02:45;;;;;;;4.95;2.62;;;;;;;5.10;86.03;97487.81;1762445;81;21167;-66
2020/12/14 00:05:14;;;;;;;5.67;2.83;;;;;;;5.11;86.10;97496.36;1762666;81;21123;-66
2020/12/14 00:07:42;;;;;;;6.35;2.87;;;;;;;5.08;85.79;97498.72;1762639;81;21390;-66
2020/12/14 00:10:10;;;;;;;5.65;3.15;;;;;;;5.07;85.73;97498.82;1762536;81;21120;-66
2020/12/14 00:12:38;;;;;;;4.87;2.92;;;;;;;5.06;85.80;97501.86;1762442;81;21148;-66
2020/12/14 00:15:06;;;;;;;7.90;2.42;;;;;;;5.08;85.69;97494.03;1762473;81;21222;-66
2020/12/14 00:17:34;;;;;;;7.15;2.83;;;;;;;5.09;85.47;97500.83;1762387;81;21112;-66
2020/12/14 00:20:25;;;;;;;5.30;2.35;;;;;;;5.10;85.37;97502.44;1762707;81;21563;-65
2020/12/14 00:22:54;;;;;;;4.37;2.85;;;;;;;5.11;85.74;97504.91;1739647;82;21124;-65
2020/12/14 00:25:23;;;;;;;4.47;3.00;;;;;;;5.15;85.67;97512.73;1739410;81;21293;-65
2020/12/14 00:27:50;;;;;;;5.75;3.02;;;;;;;5.10;86.38;97521.27;1739727;82;21211;-65
2020/12/14 00:30:18;;;;;;;4.42;2.42;;;;;;;5.15;86.10;97525.60;1739394;82;21289;-65
2020/12/14 00:32:46;;;;;;;6.22;3.37;;;;;;;5.16;86.16;97521.28;1739339;82;21163;-65
2020/12/14 00:35:14;;;;;;;4.55;2.20;;;;;;;5.17;86.20;97521.63;1739341;81;21166;-65
2020/12/14 00:37:42;;;;;;;6.15;3.02;;;;;;;5.22;85.91;97525.47;1739338;82;21210;-66
2020/12/14 00:40:10;;;;;;;6.40;2.70;;;;;;;5.26;85.92;97526.04;1739442;82;21298;-65
2020/12/14 00:42:44;;;;;;;5.95;2.52;;;;;;;5.25;85.87;97528.29;1720934;80;21243;-65
2020/12/14 00:45:12;;;;;;;7.15;3.35;;;;;;;5.28;85.85;97529.80;1700562;84;21176;-65
2020/12/14 00:47:40;;;;;;;7.25;2.95;;;;;;;5.28;85.77;97535.77;1720797;83;21199;-65
2020/12/14 00:50:08;;;;;;;4.20;1.92;;;;;;;5.25;85.88;97541.16;1700580;84;21167;-65
2020/12/14 00:52:36;;;;;;;2.33;1.72;;;;;;;5.19;85.96;97539.05;1700779;84;21175;-67
2020/12/14 00:55:04;;;;;;;4.00;2.92;;;;;;;5.19;85.90;97534.73;1700705;83;21195;-65
2020/12/14 00:57:33;;;;;;;5.53;2.22;;;;;;;5.23;85.75;97533.55;1700787;83;21180;-65
2020/12/14 01:00:01;;;;;;;5.55;2.98;;;;;;;5.23;85.87;97537.41;1700573;84;21192;-65
2020/12/14 01:02:33;;;;;;;5.78;2.62;;;;;;;5.28;85.77;97536.23;1699357;83;21167;-64
2020/12/14 01:05:01;;;;;;;3.83;2.25;;;;;;;5.24;85.83;97539.05;1700967;84;21207;-63
2020/12/14 01:07:29;;;;;;;5.62;2.92;;;;;;;5.30;85.65;97544.64;1700885;84;21175;-64
2020/12/14 01:09:57;;;;;;;6.08;2.22;;;;;;;5.33;85.58;97552.14;1721234;83;21115;-65
2020/12/14 01:12:25;;;;;;;3.90;2.50;;;;;;;5.33;85.50;97547.00;1700970;84;21259;-65
2020/12/14 01:14:53;;;;;;;4.33;2.87;;;;;;;5.34;85.49;97543.00;1721032;83;21536;-65
2020/12/14 01:17:21;;;;;;;8.05;3.55;;;;;;;5.36;85.42;97543.71;1700942;84;21163;-65
2020/12/14 01:19:49;;;;;;;4.40;2.83;;;;;;;5.37;85.39;97550.47;1721062;83;21384;-64
2020/12/14 01:22:17;;;;;;;4.35;2.27;;;;;;;5.38;85.36;97545.68;1700879;84;21192;-64
2020/12/14 01:24:45;;;;;;;6.55;3.25;;;;;;;5.39;85.20;97547.80;1721248;83;21143;-64
2020/12/14 01:27:13;;;;;;;6.45;3.40;;;;;;;5.41;85.20;97547.22;1700944;84;21219;-64
2020/12/14 01:29:42;;;;;;;5.58;2.72;;;;;;;5.40;85.24;97546.39;1720792;83;21123;-64
2020/12/14 01:32:10;;;;;;;6.20;2.90;;;;;;;5.42;85.11;97544.97;1700613;84;21163;-64
2020/12/14 01:34:38;;;;;;;6.37;2.98;;;;;;;5.44;85.07;97550.83;1721173;83;21219;-65
2020/12/14 01:37:06;;;;;;;6.65;3.22;;;;;;;5.43;85.02;97555.63;1700471;84;21588;-64
2020/12/14 01:39:34;;;;;;;5.37;2.22;;;;;;;5.44;85.13;97555.52;1720303;83;21694;-64
2020/12/14 01:42:02;;;;;;;6.62;3.58;;;;;;;5.44;85.07;97560.67;1700707;83;21680;-64
2020/12/14 01:44:30;;;;;;;4.45;2.05;;;;;;;5.46;85.07;97559.23;1700459;84;21180;-64
2020/12/14 01:47:02;;;;;;;5.80;2.80;;;;;;;5.46;85.07;97560.53;1700508;84;21211;-64
2020/12/14 01:49:31;;;;;;;5.12;3.20;;;;;;;5.45;85.08;97562.75;1700272;83;21616;-63
2020/12/14 01:52:01;;;;;;;3.98;2.17;;;;;;;5.45;85.10;97560.99;1720939;83;21726;-64
2020/12/14 01:54:36;;;;;;;3.80;2.55;;;;;;;5.35;85.19;97565.23;1700590;84;21175;-64
2020/12/14 01:57:04;;;;;;;5.13;2.20;;;;;;;5.38;85.23;97568.03;1699041;83;21148;-64
2020/12/14 01:59:32;;;;;;;5.03;2.80;;;;;;;5.41;85.10;97579.41;1700830;84;21470;-64
2020/12/14 02:02:00;;;;;;;3.95;1.98;;;;;;;5.41;84.87;97575.54;1720771;83;21810;-64
2020/12/14 02:04:29;;;;;;;3.45;1.50;;;;;;;5.41;84.76;97575.54;1700453;84;21171;-64
2020/12/14 02:07:00;;;;;;;3.98;2.58;;;;;;;5.40;84.69;97577.76;1720698;83;21154;-64
2020/12/14 02:09:28;;;;;;;6.28;2.60;;;;;;;5.42;84.59;97584.41;1700657;84;21227;-63
2020/12/14 02:11:56;;;;;;;5.33;2.45;;;;;;;5.42;84.37;97586.17;1720965;83;21552;-64
2020/12/14 02:14:24;;;;;;;5.05;3.08;;;;;;;5.42;84.39;97585.70;1681339;85;21176;-65
2020/12/14 02:16:52;;;;;;;4.97;2.30;;;;;;;5.42;84.20;97589.56;1720383;83;21195;-64
2020/12/14 02:19:21;;;;;;;4.97;2.60;;;;;;;5.41;84.15;97594.85;1700580;84;21164;-63
2020/12/14 02:21:52;;;;;;;3.37;1.90;;;;;;;5.39;84.14;97596.72;1700418;84;21192;-64
2020/12/14 02:24:20;;;;;;;3.30;2.02;;;;;;;5.37;84.10;97599.39;1720826;83;21195;-64
2020/12/14 02:26:51;;;;;;;5.40;2.25;;;;;;;5.34;84.07;97598.35;1700679;84;21203;-64
2020/12/14 02:29:19;;;;;;;7.45;2.40;;;;;;;5.33;84.05;97603.64;1700914;84;21163;-65
2020/12/14 02:31:47;;;;;;;5.17;2.52;;;;;;;5.30;84.03;97605.97;1710189;83;21212;-64
2020/12/14 02:34:15;;;;;;;5.00;2.67;;;;;;;5.28;84.13;97613.00;1700591;84;21203;-64
2020/12/14 02:36:43;;;;;;;6.70;3.70;;;;;;;5.24;84.22;97613.70;1700273;84;21136;-64
2020/12/14 02:39:11;;;;;;;6.42;2.80;;;;;;;5.22;84.24;97609.59;1721206;83;21195;-64
2020/12/14 02:41:39;;;;;;;5.87;2.90;;;;;;;5.19;84.26;97610.66;1708359;82;21190;-64
2020/12/14 02:44:07;;;;;;;4.60;2.50;;;;;;;5.19;84.32;97608.55;1730252;82;21136;-65
2020/12/14 02:46:35;;;;;;;4.35;2.25;;;;;;;5.18;84.37;97608.19;1754395;80;21597;-66
2020/12/14 02:49:03;;;;;;;8.43;3.33;;;;;;;5.16;84.42;97613.94;1733144;82;21199;-65
2020/12/14 02:51:31;;;;;;;6.62;3.45;;;;;;;5.15;84.47;97617.44;1754520;82;21157;-65
2020/12/14 02:53:59;;;;;;;5.58;3.67;;;;;;;5.13;84.57;97616.30;1733329;81;21205;-66
2020/12/14 02:56:28;;;;;;;6.55;2.87;;;;;;;5.11;84.59;97621.19;1754450;82;21152;-65
2020/12/14 02:58:56;;;;;;;6.53;3.40;;;;;;;5.10;84.53;97622.94;1733174;82;21167;-65
2020/12/14 03:01:23;;;;;;;4.87;2.70;;;;;;;5.10;84.61;97629.84;1754363;80;21156;-65
2020/12/14 03:03:52;;;;;;;5.08;2.85;;;;;;;5.09;84.63;97635.48;1733250;82;21615;-64
2020/12/14 03:06:20;;;;;;;8.58;3.42;;;;;;;5.08;84.65;97632.55;1754577;82;21155;-64
2020/12/14 03:08:48;;;;;;;7.65;3.50;;;;;;;5.07;84.79;97633.94;1733579;82;21214;-63
2020/12/14 03:11:16;;;;;;;4.40;2.67;;;;;;;5.06;84.87;97634.86;1754729;81;21148;-65
2020/12/14 03:13:44;;;;;;;6.15;2.95;;;;;;;5.06;84.96;97643.41;1733398;82;21191;-65
2020/12/14 03:16:13;;;;;;;4.97;2.47;;;;;;;5.05;85.06;97637.93;1754261;81;21208;-65
2020/12/14 03:18:41;;;;;;;5.15;2.90;;;;;;;5.04;85.25;97645.75;1733273;82;21171;-66
2020/12/14 03:21:10;;;;;;;5.60;2.62;;;;;;;5.03;85.42;97645.40;1754274;82;21251;-66
2020/12/14 03:23:37;;;;;;;7.08;3.12;;;;;;;5.02;85.24;97645.86;1733215;81;21132;-66
2020/12/14 03:26:05;;;;;;;6.50;3.40;;;;;;;5.01;85.41;97637.81;1754405;81;21141;-66
2020/12/14 03:28:33;;;;;;;8.98;2.95;;;;;;;5.00;85.37;97650.31;1733318;82;21191;-65
2020/12/14 03:31:04;;;;;;;7.45;2.80;;;;;;;4.99;85.28;97646.09;1754299;80;21200;-65
2020/12/14 03:33:32;;;;;;;2.95;2.08;;;;;;;4.99;85.08;97645.27;1733125;82;21139;-64
2020/12/14 03:36:00;;;;;;;6.58;2.62;;;;;;;4.98;85.13;97647.52;1754181;81;21196;-65
2020/12/14 03:38:28;;;;;;;5.10;2.90;;;;;;;4.97;85.23;97645.41;1733312;82;21175;-65
2020/12/14 03:40:56;;;;;;;6.65;2.83;;;;;;;4.96;85.04;97645.05;1754173;80;21176;-65
2020/12/14 03:43:24;;;;;;;7.20;2.92;;;;;;;4.95;85.16;97639.55;1733266;81;21219;-66
2020/12/14 03:45:51;;;;;;;5.83;3.17;;;;;;;4.95;85.25;97641.30;1754477;81;21161;-65
2020/12/14 03:48:19;;;;;;;5.37;3.20;;;;;;;4.94;85.16;97634.53;1733443;81;21155;-65
2020/12/14 03:50:47;;;;;;;4.40;3.10;;;;;;;4.93;85.31;97636.75;1755104;81;21153;-65
2020/12/14 03:53:15;;;;;;;6.67;2.90;;;;;;;4.93;85.31;97645.29;1734157;82;21194;-64
2020/12/14 03:55:43;;;;;;;7.70;3.65;;;;;;;4.92;85.40;97642.35;1754712;82;21159;-65
2020/12/14 03:58:11;;;;;;;4.65;2.62;;;;;;;4.92;85.61;97645.39;1733081;81;21211;-63
2020/12/14 04:00:39;;;;;;;6.47;3.60;;;;;;;4.92;85.54;97653.11;1754179;82;21192;-66
2020/12/14 04:03:08;;;;;;;6.60;3.02;;;;;;;4.92;85.59;97651.36;1733154;82;21164;-63
2020/12/14 04:05:37;;;;;;;4.55;2.72;;;;;;;4.91;85.72;97655.32;1755161;80;21772;-67
2020/12/14 04:08:05;;;;;;;2.83;1.55;;;;;;;4.82;86.22;97650.88;1734380;81;21131;-66
2020/12/14 04:10:35;;;;;;;3.67;1.72;;;;;;;4.87;85.57;97652.16;1755791;82;21338;-65
2020/12/14 04:13:03;;;;;;;4.50;2.08;;;;;;;4.91;85.27;97655.32;1734565;81;21147;-64
2020/12/14 04:15:31;;;;;;;3.80;2.83;;;;;;;4.91;85.41;97660.00;1754531;80;21152;-64
2020/12/14 04:17:59;;;;;;;6.50;2.08;;;;;;;4.94;85.59;97660.27;1733180;81;21202;-67
2020/12/14 04:20:27;;;;;;;7.10;2.77;;;;;;;4.92;85.86;97669.37;1754542;80;21154;-64
2020/12/14 04:22:55;;;;;;;3.98;2.17;;;;;;;4.94;85.65;97669.27;1733035;81;21183;-65
2020/12/14 04:25:24;;;;;;;3.90;2.40;;;;;;;4.97;85.63;97674.18;1754448;81;21211;-65
2020/12/14 04:27:52;;;;;;;3.08;1.95;;;;;;;4.91;85.80;97673.33;1732865;82;21194;-66
2020/12/14 04:30:20;;;;;;;4.85;2.42;;;;;;;4.90;85.74;97675.11;1754375;81;21606;-63
2020/12/14 04:32:48;;;;;;;3.05;2.15;;;;;;;4.93;85.57;97673.59;1733354;81;21194;-64
2020/12/14 04:35:16;;;;;;;5.70;2.33;;;;;;;4.88;85.93;97673.11;1754288;81;21160;-67
2020/12/14 04:37:45;;;;;;;5.05;2.72;;;;;;;4.95;85.56;97673.45;1733188;81;21163;-67
2020/12/14 04:40:13;;;;;;;3.25;2.10;;;;;;;4.89;85.74;97681.65;1754587;82;21196;-67
2020/12/14 04:42:44;;;;;;;4.78;2.85;;;;;;;4.90;85.61;97681.55;1718074;82;21171;-66
2020/12/14 04:45:12;;;;;;;4.28;1.65;;;;;;;4.89;85.69;97679.90;1721143;83;21195;-67
2020/12/14 04:47:42;;;;;;;1.95;1.30;;;;;;;4.93;85.53;97681.77;1686738;84;21237;-66
2020/12/14 04:50:10;;;;;;;5.15;2.00;;;;;;;4.95;85.35;97683.28;1720965;83;21663;-66
2020/12/14 04:52:42;;;;;;;2.77;1.82;;;;;;;4.97;85.00;97684.01;1700223;84;21195;-65
2020/12/14 04:55:11;;;;;;;5.83;1.67;;;;;;;5.00;84.82;97690.20;1699847;84;21175;-65
2020/12/14 04:57:43;;;;;;;3.33;1.32;;;;;;;5.00;84.72;97688.09;1699866;84;21261;-65
2020/12/14 05:00:12;;;;;;;3.25;1.80;;;;;;;4.98;84.81;97686.91;1720747;83;21174;-65
2020/12/14 05:02:39;;;;;;;1.90;1.10;;;;;;;4.99;84.84;97696.73;1701031;84;21164;-64
2020/12/14 05:05:13;;;;;;;1.98;1.12;;;;;;;4.99;84.74;97691.13;1721136;83;21501;-65
2020/12/14 05:07:43;;;;;;;2.77;1.32;;;;;;;4.98;84.84;97698.48;1701006;84;21212;-65
2020/12/14 05:10:13;;;;;;;3.10;1.37;;;;;;;4.97;84.86;97705.06;1721144;83;21151;-65
2020/12/14 05:12:43;;;;;;;4.08;2.27;;;;;;;4.96;84.78;97704.23;1700661;84;21183;-65
2020/12/14 05:15:27;;;;;;;3.40;2.10;;;;;;;4.96;84.83;97705.52;1721059;83;21129;-65
2020/12/14 05:18:15;;;;;;;3.22;1.92;;;;;;;4.94;84.91;97702.22;1700913;84;21191;-66
2020/12/14 05:21:04;;;;;;;5.15;2.40;;;;;;;4.83;85.30;97699.63;1700861;84;21175;-65
2020/12/14 05:23:32;;;;;;;2.47;1.62;;;;;;;4.79;85.41;97711.91;1721158;83;21186;-65
2020/12/14 05:26:06;;;;;;;3.47;2.02;;;;;;;4.78;85.45;97709.47;1700927;84;21197;-65
2020/12/14 05:28:35;;;;;;;4.67;2.05;;;;;;;4.75;85.76;97709.66;1700783;84;21215;-65
2020/12/14 05:31:03;;;;;;;3.55;2.20;;;;;;;4.71;86.18;97706.96;1719286;83;21172;-64
2020/12/14 05:33:33;;;;;;;4.55;2.60;;;;;;;4.70;86.27;97715.17;1719372;83;21171;-65
2020/12/14 05:36:00;;;;;;;3.83;1.98;;;;;;;4.70;86.32;97717.75;1723731;83;21210;-64
2020/12/14 05:38:31;;;;;;;5.85;2.40;;;;;;;4.63;87.05;97723.45;1723595;83;21285;-66
2020/12/14 05:41:02;;;;;;;2.83;1.90;;;;;;;4.70;86.48;97728.03;1722215;83;21227;-66
2020/12/14 05:43:32;;;;;;;6.97;2.70;;;;;;;4.69;86.84;97731.53;1734361;82;21167;-66
2020/12/14 05:46:15;;;;;;;2.92;2.22;;;;;;;4.75;86.74;97734.92;1698853;83;21146;-66
2020/12/14 05:48:46;;;;;;;5.72;2.30;;;;;;;4.75;86.82;97737.96;1729534;83;21140;-66
2020/12/14 05:51:13;;;;;;;6.10;2.33;;;;;;;4.79;86.81;97741.48;1727424;83;21163;-66
2020/12/14 05:53:55;;;;;;;3.20;2.17;;;;;;;4.78;86.49;97746.77;1729667;83;21215;-66
2020/12/14 05:56:26;;;;;;;6.10;3.02;;;;;;;4.81;86.36;97746.53;1727740;83;21249;-66
2020/12/14 05:58:57;;;;;;;3.27;2.08;;;;;;;4.85;86.17;97757.42;1727514;83;21180;-66
2020/12/14 06:01:26;;;;;;;4.80;1.90;;;;;;;4.88;86.15;97763.16;1730425;82;21215;-66
2020/12/14 06:03:56;;;;;;;2.12;1.87;;;;;;;4.94;86.10;97765.77;1727944;83;21199;-66
2020/12/14 06:06:29;;;;;;;5.67;2.52;;;;;;;4.98;85.93;97771.83;1732345;81;21186;-65
2020/12/14 06:09:06;;;;;;;4.92;2.17;;;;;;;5.01;86.19;97777.23;1731425;82;21158;-66
2020/12/14 06:11:37;;;;;;;3.42;1.90;;;;;;;5.04;85.95;97779.12;1732677;83;21136;-66
2020/12/14 06:14:08;;;;;;;3.70;1.92;;;;;;;5.06;85.75;97779.81;1732922;82;21627;-66
2020/12/14 06:16:39;;;;;;;3.80;1.98;;;;;;;5.14;85.64;97784.39;1732807;83;21801;-66
2020/12/14 06:22:50;;;;;;;5.42;2.35;;;;;;;5.19;84.45;97786.17;1730287;83;21179;-66
2020/12/14 06:28:38;;;;;;;6.20;2.95;;;;;;;5.24;84.74;97800.36;1657528;84;21583;-65
2020/12/14 06:31:06;;;;;;;6.72;3.05;;;;;;;5.19;84.42;97797.75;1696609;83;21223;-64
2020/12/14 06:33:40;;;;;;;8.05;3.08;;;;;;;5.19;84.59;97806.77;1716646;82;21146;-66
2020/12/14 06:36:25;;;;;;;6.28;3.80;;;;;;;5.19;84.44;97810.62;1720437;81;21184;-66
2020/12/14 06:38:53;;;;;;;7.00;3.62;;;;;;;5.12;84.41;97812.84;1707914;83;21527;-66
2020/12/14 06:41:24;;;;;;;4.58;2.40;;;;;;;5.10;84.52;97815.15;1728068;83;21208;-66
2020/12/14 06:44:07;;;;;;;4.15;1.95;;;;;;;5.08;84.54;97812.70;1707550;83;21179;-66
2020/12/14 06:46:36;;;;;;;4.92;2.12;;;;;;;5.07;84.54;97811.05;1697148;84;21356;-66
2020/12/14 06:49:09;;;;;;;5.75;2.50;;;;;;;5.07;84.28;97812.34;1727579;83;21275;-64
2020/12/14 06:51:54;;;;;;;3.92;2.08;;;;;;;5.04;84.32;97816.44;1727764;83;21128;-64
2020/12/14 06:54:45;;;;;;;6.78;3.30;;;;;;;5.03;84.30;97819.94;1727696;83;21195;-64
2020/12/14 06:57:17;;;;;;;8.30;3.17;;;;;;;5.01;84.37;97819.70;1707725;84;21194;-66
2020/12/14 06:59:53;;;;;;;3.95;2.58;;;;;;;5.00;84.52;97832.20;1728092;83;21648;-66
2020/12/14 07:02:41;;;;;;;6.65;3.15;;;;;;;4.98;84.53;97834.88;1727221;83;21188;-66
2020/12/14 07:05:33;;;;;;;6.80;3.67;;;;;;;4.93;84.85;97837.45;1727501;83;21145;-66
2020/12/14 07:08:02;;;;;;;6.08;3.15;;;;;;;4.92;84.71;97832.77;1707435;84;21186;-66
2020/12/14 07:10:31;;;;;;;6.58;2.85;;;;;;;4.92;85.30;97840.94;1727344;83;21176;-66
2020/12/14 07:12:59;;;;;;;7.85;3.77;;;;;;;4.92;85.10;97844.80;1727183;83;21188;-66
2020/12/14 07:15:34;;;;;;;5.90;3.20;;;;;;;4.90;85.20;97844.94;1726514;83;21770;-66
2020/12/14 07:18:07;;;;;;;5.00;2.72;;;;;;;4.89;85.24;97844.57;1707468;84;21265;-66
2020/12/14 07:21:06;;;;;;;6.60;2.37;;;;;;;4.94;85.15;97846.81;1727678;83;21295;-65
2020/12/14 07:23:35;;;;;;;;;;;;;;;4.93;85.03;97859.32;1714469;82;21288;-66
2020/12/14 07:26:04;;;;;;;5.50;2.52;;;;;;;4.95;84.95;97863.41;1711778;84;20602;-67
2020/12/14 07:28:42;;;;;;;7.17;2.92;;;;;;;4.98;84.99;97863.19;1681882;85;21148;-67
2020/12/14 07:34:10;;;;;;;3.40;2.08;;;;;;;5.04;84.75;97871.77;1705014;84;21303;-66
2020/12/14 07:36:38;;;;;;;5.08;2.60;;;;;;;5.06;84.61;97871.18;1705691;84;21582;-65
2020/12/14 07:39:06;;;;;;;5.90;2.22;;;;;;;5.07;84.41;97872.00;1685803;84;21574;-69
2020/12/14 07:41:56;;;;;;;5.78;2.67;;;;;;;5.07;84.36;97879.27;1684519;84;21177;-65
2020/12/14 07:44:26;;;;;;;4.80;2.55;;;;;;;5.10;85.68;97875.17;1764985;81;21200;-67
2020/12/14 07:46:53;;;;;;;43.10;21.02;;;;;;;5.15;85.74;97878.70;1765126;81;21152;-67
2020/12/14 07:49:23;;;;;;;49.75;23.12;;;;;;;5.21;85.56;97882.14;1764955;80;21333;-67
2020/12/14 07:51:51;;;;;;;8.78;4.87;;;;;;;5.24;85.03;97884.02;1765930;80;21186;-68
2020/12/14 07:54:20;;;;;;;6.25;3.12;;;;;;;5.31;85.37;97886.97;1771650;81;21556;-67
2020/12/14 07:57:00;;;;;;;5.75;2.12;;;;;;;5.40;85.26;97886.77;1758571;80;21188;-66
2020/12/14 07:59:30;;;;;;;2.90;1.92;;;;;;;5.48;86.11;97884.45;1743667;81;21964;-68
2020/12/14 08:01:58;;;;;;;3.87;1.80;;;;;;;5.60;85.19;97897.22;1742634;82;21170;-67
2020/12/14 08:04:32;;;;;;;3.45;1.95;;;;;;;5.68;84.88;97898.77;1741358;82;21622;-67
2020/12/14 08:07:00;;;;;;;5.08;2.20;;;;;;;5.77;84.34;97899.02;1735903;81;21160;-68
2020/12/14 08:09:36;;;;;;;3.30;1.32;;;;;;;5.79;82.86;97900.57;1757756;81;21147;-68
2020/12/14 08:12:06;;;;;;;3.15;1.75;;;;;;;5.84;83.30;97903.60;1736169;81;21172;-67
2020/12/14 08:14:54;;;;;;;1.27;0.93;;;;;;;5.92;82.79;97910.33;1757762;81;21127;-66
2020/12/14 08:17:23;;;;;;;2.25;1.12;;;;;;;6.00;82.55;97914.44;1717077;82;21198;-66
2020/12/14 08:19:51;;;;;;;3.40;1.45;;;;;;;6.05;82.26;97916.22;1710743;83;21210;-68
2020/12/14 08:22:20;;;;;;;2.22;1.50;;;;;;;6.12;82.48;97925.12;1713353;83;21128;-65
2020/12/14 08:24:53;;;;;;;4.20;2.42;;;;;;;6.19;82.13;97923.71;1713654;83;21210;-65
2020/12/14 08:27:26;;;;;;;3.27;1.60;;;;;;;6.21;80.64;97922.32;1713707;83;21183;-66
2020/12/14 08:30:05;;;;;;;2.47;1.30;;;;;;;6.24;80.66;97923.83;1678549;84;21162;-66
2020/12/14 08:32:32;;;;;;;1.80;1.32;;;;;;;6.27;80.59;97927.46;1739105;82;21230;-67
2020/12/14 08:35:22;;;;;;;4.67;1.50;;;;;;;6.29;80.11;97923.02;1738883;82;21186;-68
2020/12/14 08:37:52;;;;;;;1.22;1.05;;;;;;;6.29;80.12;97926.43;1738924;82;21139;-66
2020/12/14 08:40:19;;;;;;;2.35;1.45;;;;;;;6.30;80.07;97928.55;1712218;82;21159;-66
2020/12/14 08:42:47;;;;;;;5.53;1.42;;;;;;;6.30;79.82;97930.66;1739031;82;21158;-68
2020/12/14 08:45:18;;;;;;;3.60;1.80;;;;;;;6.29;79.65;97932.05;1739330;82;21214;-68
2020/12/14 08:47:46;;;;;;;6.70;1.87;;;;;;;6.27;79.47;97940.36;1738964;82;21208;-68
2020/12/14 08:50:17;;;;;;;1.92;0.98;;;;;;;6.25;79.04;97942.25;1739196;82;21182;-68
2020/12/14 08:52:48;;;;;;;1.80;1.30;;;;;;;6.25;79.64;97935.80;1721697;82;21198;-68
2020/12/14 08:55:16;;;;;;;2.25;1.47;;;;;;;6.22;79.00;97937.33;1710842;83;21240;-67
2020/12/14 08:57:46;;;;;;;2.30;1.32;;;;;;;6.20;79.55;97938.72;1713486;82;21163;-66
2020/12/14 09:00:15;;;;;;;3.87;1.82;;;;;;;6.19;78.93;97938.36;1713444;83;21694;-67
2020/12/14 09:02:43;;;;;;;3.47;1.95;;;;;;;6.17;78.70;97938.96;1713432;83;21345;-67
2020/12/14 09:05:20;;;;;;;2.05;1.05;;;;;;;6.18;78.65;97938.86;1713443;83;21678;-66
2020/12/14 09:07:48;;;;;;;3.95;1.72;;;;;;;6.19;79.35;97937.89;1713383;83;21170;-67
2020/12/14 09:10:18;;;;;;;4.25;1.90;;;;;;;6.23;79.31;97944.10;1730061;82;21559;-67
2020/12/14 09:12:47;;;;;;;2.80;1.75;;;;;;;6.23;78.89;97942.35;1734042;83;21528;-67
2020/12/14 09:15:16;;;;;;;3.22;1.52;;;;;;;6.25;79.14;97937.09;1733271;82;21694;-66
2020/12/14 09:17:45;;;;;;;3.95;2.05;;;;;;;6.26;79.11;97942.14;1731290;82;21198;-66
2020/12/14 09:20:13;;;;;;;4.20;2.05;;;;;;;6.26;78.51;97946.02;1731129;83;21197;-66
2020/12/14 09:22:45;;;;;;;3.80;1.98;;;;;;;6.26;78.90;97940.85;1673152;84;21135;-66
2020/12/14 09:25:13;;;;;;;6.08;2.40;;;;;;;6.26;78.77;97940.85;1731071;82;21662;-70
2020/12/14 09:27:41;;;;;;;6.70;2.72;;;;;;;6.25;78.74;97940.49;1731444;83;21145;-66
2020/12/14 09:30:09;;;;;;;5.20;2.70;;;;;;;6.26;78.95;97946.02;1731234;82;21154;-67
2020/12/14 09:32:37;;;;;;;4.33;2.35;;;;;;;6.27;78.95;97941.18;1731461;83;21213;-66
2020/12/14 09:35:06;;;;;;;3.05;2.05;;;;;;;6.28;78.96;97932.98;1731242;82;21191;-66
2020/12/14 09:37:34;;;;;;;4.40;2.27;;;;;;;6.27;78.98;97933.45;1731103;82;21145;-65
2020/12/14 09:40:04;;;;;;;3.77;2.15;;;;;;;6.25;78.68;97927.59;1731242;82;21162;-65
2020/12/14 09:42:31;;;;;;;3.87;2.25;;;;;;;6.23;78.25;97928.17;1731155;83;21138;-66
2020/12/14 09:44:59;;;;;;;5.45;2.40;;;;;;;6.22;78.50;97938.62;1731395;82;21158;-65
2020/12/14 09:47:27;;;;;;;5.70;2.60;;;;;;;6.20;78.75;97931.81;1680694;84;21190;-65
2020/12/14 09:49:55;;;;;;;4.72;2.87;;;;;;;6.21;78.66;97932.63;1680579;84;21202;-65
2020/12/14 09:52:23;;;;;;;3.95;2.55;;;;;;;6.10;77.66;97932.62;1679905;84;21213;-66
2020/12/14 09:54:51;;;;;;;4.80;2.08;;;;;;;6.07;78.23;97933.66;1708098;82;21228;-65
2020/12/14 09:57:19;;;;;;;5.55;2.70;;;;;;;6.06;78.22;97931.22;1731016;81;21190;-66
2020/12/14 09:59:48;;;;;;;4.67;2.08;;;;;;;6.06;78.58;97928.17;1680303;84;21214;-65
2020/12/14 10:02:17;;;;;;;2.83;1.85;;;;;;;6.09;78.82;97930.52;1680324;84;21234;-65
2020/12/14 10:04:45;;;;;;;3.35;1.87;;;;;;;6.11;78.85;97934.25;1680011;84;21583;-65
2020/12/14 10:07:13;;;;;;;7.50;2.67;;;;;;;6.10;78.73;97936.03;1679945;84;21300;-65
2020/12/14 10:09:41;;;;;;;5.33;2.15;;;;;;;6.09;78.76;97931.80;1680399;84;21180;-69
2020/12/14 10:12:10;;;;;;;5.00;2.65;;;;;;;6.07;78.51;97932.38;1680617;84;22602;-68
2020/12/14 10:14:39;;;;;;;6.83;2.55;;;;;;;6.07;78.70;97928.50;1681025;84;21177;-66
2020/12/14 10:17:07;;;;;;;6.72;2.05;;;;;;;6.07;78.85;97925.13;1644644;85;21194;-65
2020/12/14 10:19:35;;;;;;;4.85;2.42;;;;;;;6.09;79.11;97924.07;1645238;87;21192;-66
2020/12/14 10:22:03;;;;;;;3.67;1.77;;;;;;;6.08;78.97;97937.06;1676041;84;21186;-67
2020/12/14 10:24:31;;;;;;;3.98;1.80;;;;;;;6.06;78.90;97929.92;1674537;85;21252;-67
2020/12/14 10:26:59;;;;;;;6.05;2.75;;;;;;;6.07;79.07;97936.23;1652267;86;21234;-66
2020/12/14 10:29:27;;;;;;;54.77;28.35;;;;;;;6.00;78.86;97936.35;1673831;86;21207;-67
2020/12/14 10:31:55;;;;;;;29.72;13.65;;;;;;;6.07;79.20;97932.38;1651778;86;21187;-66
2020/12/14 10:34:24;;;;;;;12.07;6.45;;;;;;;6.09;79.22;97935.67;1673740;86;21155;-66
2020/12/14 10:36:51;;;;;;;8.08;3.72;;;;;;;6.11;78.92;97931.67;1651680;86;21186;-65
2020/12/14 10:39:19;;;;;;;2.92;2.10;;;;;;;6.15;78.77;97933.08;1673619;86;21339;-66
2020/12/14 10:41:47;;;;;;;8.78;2.65;;;;;;;6.16;78.71;97929.11;1652417;86;21226;-65
2020/12/14 10:44:16;;;;;;;7.03;2.40;;;;;;;6.18;78.91;97930.30;1686322;84;21182;-66
2020/12/14 10:46:44;;;;;;;7.12;2.40;;;;;;;6.18;78.73;97933.70;1683642;84;21183;-65
2020/12/14 10:49:12;;;;;;;8.08;2.85;;;;;;;6.17;78.40;97933.80;1683692;84;21194;-66
2020/12/14 10:51:40;;;;;;;5.78;2.72;;;;;;;6.19;78.64;97933.20;1705406;83;21170;-65
2020/12/14 10:54:08;;;;;;;3.95;1.65;;;;;;;6.22;78.73;97942.02;1685941;84;21230;-65
2020/12/14 10:56:36;;;;;;;7.97;2.72;;;;;;;6.25;78.60;97931.93;1667249;86;21226;-66
2020/12/14 10:59:04;;;;;;;3.52;2.10;;;;;;;6.26;78.07;97937.45;1666140;86;21613;-67
2020/12/14 11:01:32;;;;;;;3.87;2.50;;;;;;;6.27;78.37;97930.86;1666559;86;21204;-66
2020/12/14 11:06:40;;;;;;;4.60;2.00;;;;;;;6.23;77.98;97931.21;1757688;81;21648;-66
2020/12/14 11:09:08;;;;;;;4.75;2.30;;;;;;;6.26;78.07;97933.11;1757695;81;21192;-67
2020/12/14 11:11:36;;;;;;;6.45;2.22;;;;;;;6.26;78.05;97939.56;1757761;81;21199;-66
2020/12/14 11:14:05;;;;;;;4.87;2.12;;;;;;;6.26;78.23;97938.73;1757724;81;21189;-66
2020/12/14 11:16:38;;;;;;;6.08;2.60;;;;;;;6.25;78.39;97945.65;1757653;81;21601;-66
2020/12/14 11:19:05;;;;;;;5.42;2.72;;;;;;;6.27;78.64;97936.48;1757833;81;21220;-67
2020/12/14 11:21:33;;;;;;;4.83;2.55;;;;;;;6.30;78.70;97942.73;1757757;81;21192;-66
2020/12/14 11:24:01;;;;;;;6.70;2.72;;;;;;;6.20;78.66;97915.05;1757861;81;21145;-66
2020/12/14 11:26:30;;;;;;;4.45;3.00;;;;;;;6.24;78.43;97926.41;1757299;81;21189;-66
2020/12/14 11:28:58;;;;;;;6.22;3.25;;;;;;;6.35;78.62;97939.30;1757654;81;21201;-65
2020/12/14 11:31:28;;;;;;;5.87;3.52;;;;;;;6.36;78.51;97940.95;1757825;81;21558;-66
2020/12/14 11:33:56;;;;;;;5.72;2.70;;;;;;;6.36;78.49;97933.22;1757853;81;21157;-65
2020/12/14 11:36:28;;;;;;;4.47;2.45;;;;;;;6.38;78.59;97935.23;1751245;81;21548;-66
2020/12/14 11:38:56;;;;;;;4.78;2.33;;;;;;;6.38;78.49;97941.18;1749619;82;21159;-66
2020/12/14 11:41:26;;;;;;;4.90;3.00;;;;;;;6.37;78.28;97940.03;1741086;82;21242;-66
2020/12/14 11:43:55;;;;;;;6.28;3.67;;;;;;;6.41;79.31;97941.44;1741098;82;21575;-65
2020/12/14 11:46:23;;;;;;;5.28;1.92;;;;;;;6.43;79.22;97940.38;1741235;81;21159;-66
2020/12/14 11:48:52;;;;;;;2.65;1.80;;;;;;;6.47;79.00;97944.36;1740987;82;21140;-65
2020/12/14 11:51:20;;;;;;;2.87;2.05;;;;;;;6.52;78.70;97944.02;1741063;82;21318;-66
2020/12/14 11:53:49;;;;;;;3.70;1.70;;;;;;;6.56;78.55;97946.70;1740906;82;21199;-65
2020/12/14 11:58:58;;;;;;;42.93;23.35;;;;;;;6.58;78.17;97950.80;1774571;80;21591;-69
2020/12/14 12:01:26;;;;;;;17.75;11.78;;;;;;;6.63;78.48;97959.02;1773857;80;21147;-66
2020/12/14 12:03:55;;;;;;;4.92;3.25;;;;;;;6.68;78.16;97959.95;1774170;81;21150;-66
2020/12/14 12:06:28;;;;;;;5.58;2.22;;;;;;;6.73;78.21;97962.98;1774164;79;21324;-65
2020/12/14 12:08:57;;;;;;;5.65;2.08;;;;;;;6.74;77.99;97959.47;1773927;80;21134;-65